createdAt,value
2022-12-19T00:01:37.488Z,16.83
2022-12-19T00:04:10.933Z,17.77
2022-12-19T00:06:43.594Z,18.10
2022-12-19T00:09:12.434Z,16.80
2022-12-19T00:11:40.189Z,17.52
2022-12-19T00:14:07.449Z,17.05
2022-12-19T00:16:34.125Z,17.27
2022-12-19T00:19:01.552Z,17.17
2022-12-19T00:21:30.907Z,16.20
2022-12-19T00:24:01.692Z,16.27
2022-12-19T00:26:37.017Z,16.60
2022-12-19T00:29:11.176Z,17.40
2022-12-19T00:31:42.642Z,17.40
2022-12-19T00:34:09.684Z,16.20
2022-12-19T00:36:36.533Z,15.98
2022-12-19T00:39:08.018Z,16.50
2022-12-19T00:41:37.042Z,16.35
2022-12-19T00:44:07.108Z,16.08
2022-12-19T00:46:34.814Z,16.13
2022-12-19T00:49:02.431Z,14.68
2022-12-19T00:51:32.077Z,16.25
2022-12-19T00:53:59.146Z,15.35
2022-12-19T00:56:28.429Z,15.02
2022-12-19T00:58:55.526Z,14.18
2022-12-19T01:01:24.472Z,14.82
2022-12-19T01:04:26.452Z,15.68
2022-12-19T01:06:38.476Z,15.57
2022-12-19T01:09:05.693Z,15.18
2022-12-19T01:11:55.600Z,14.90
2022-12-19T01:14:23.370Z,15.07
2022-12-19T01:16:50.904Z,14.88
2022-12-19T01:19:19.377Z,14.55
2022-12-19T01:21:46.162Z,14.95
2022-12-19T01:24:13.760Z,14.60
2022-12-19T01:26:45.019Z,14.52
2022-12-19T01:29:12.157Z,14.70
2022-12-19T01:31:41.876Z,14.23
2022-12-19T01:34:08.832Z,14.15
2022-12-19T01:36:39.577Z,15.20
2022-12-19T01:39:06.795Z,13.98
2022-12-19T01:41:33.425Z,13.50
2022-12-19T01:44:09.476Z,14.27
2022-12-19T01:46:45.940Z,13.45
2022-12-19T01:49:32.422Z,14.70
2022-12-19T01:52:01.344Z,13.85
2022-12-19T01:54:47.969Z,12.77
2022-12-19T01:57:18.337Z,13.57
2022-12-19T01:59:51.310Z,13.43
2022-12-19T02:02:24.611Z,13.35
2022-12-19T02:04:57.465Z,14.57
2022-12-19T02:07:25.221Z,13.68
2022-12-19T02:09:57.210Z,13.45
2022-12-19T02:12:35.374Z,13.20
2022-12-19T02:15:03.860Z,12.93
2022-12-19T02:17:57.427Z,13.30
2022-12-19T02:20:36.527Z,12.73
2022-12-19T02:23:12.305Z,13.05
2022-12-19T02:26:07.574Z,13.68
2022-12-19T02:29:05.206Z,14.10
2022-12-19T02:31:46.206Z,13.57
2022-12-19T02:34:31.331Z,12.43
2022-12-19T02:37:08.053Z,12.40
2022-12-19T02:39:46.683Z,12.20
2022-12-19T02:42:22.585Z,12.77
2022-12-19T02:44:51.992Z,13.35
2022-12-19T02:47:21.414Z,12.55
2022-12-19T02:49:48.948Z,12.82
2022-12-19T02:52:19.187Z,12.82
2022-12-19T02:54:52.375Z,13.27
2022-12-19T02:57:51.838Z,13.32
2022-12-19T03:00:21.918Z,13.45
2022-12-19T03:03:21.151Z,13.23
2022-12-19T03:05:57.001Z,14.07
2022-12-19T03:08:37.734Z,12.98
2022-12-19T03:11:10.318Z,14.82
2022-12-19T03:13:42.694Z,15.05
2022-12-19T03:16:10.489Z,13.70
2022-12-19T03:18:38.069Z,12.75
2022-12-19T03:21:16.851Z,12.77
2022-12-19T03:23:47.414Z,14.07
2022-12-19T03:26:18.220Z,14.50
2022-12-19T03:29:11.117Z,13.55
2022-12-19T03:31:38.797Z,13.45
2022-12-19T03:34:10.762Z,13.45
2022-12-19T03:36:44.202Z,13.75
2022-12-19T03:39:12.776Z,15.93
2022-12-19T03:41:58.447Z,15.57
2022-12-19T03:44:27.252Z,14.38
2022-12-19T03:47:20.567Z,14.40
2022-12-19T03:49:47.913Z,14.45
2022-12-19T03:52:29.154Z,14.40
2022-12-19T03:55:17.474Z,13.82
2022-12-19T03:57:49.833Z,14.32
2022-12-19T04:00:17.636Z,16.02
2022-12-19T04:02:50.159Z,15.75
2022-12-19T04:05:26.074Z,15.32
2022-12-19T04:07:55.647Z,14.18
2022-12-19T04:10:25.080Z,14.70
2022-12-19T04:12:56.202Z,16.23
2022-12-19T04:15:32.179Z,15.50
2022-12-19T04:18:00.035Z,15.20
2022-12-19T04:20:27.822Z,15.57
2022-12-19T04:23:00.238Z,14.15
2022-12-19T04:25:35.975Z,15.05
2022-12-19T04:28:07.303Z,15.65
2022-12-19T04:30:38.523Z,15.27
2022-12-19T04:33:05.230Z,16.58
2022-12-19T04:35:37.920Z,15.68
2022-12-19T04:38:04.846Z,15.43
2022-12-19T04:40:40.670Z,16.10
2022-12-19T04:43:08.559Z,15.30
2022-12-19T04:45:35.341Z,16.88
2022-12-19T04:48:03.288Z,16.00
2022-12-19T04:50:30.137Z,15.77
2022-12-19T04:52:58.093Z,16.52
2022-12-19T04:55:24.854Z,15.40
2022-12-19T04:57:51.905Z,16.23
2022-12-19T05:00:18.616Z,16.17
2022-12-19T05:02:45.827Z,15.73
2022-12-19T05:05:12.585Z,15.95
2022-12-19T05:07:40.707Z,16.08
2022-12-19T05:10:08.041Z,15.07
2022-12-19T05:12:35.014Z,15.82
2022-12-19T05:15:01.726Z,15.70
2022-12-19T05:17:28.360Z,16.65
2022-12-19T05:19:55.243Z,17.52
2022-12-19T05:22:22.058Z,16.73
2022-12-19T05:24:48.719Z,18.15
2022-12-19T05:27:15.363Z,17.75
2022-12-19T05:29:42.058Z,16.92
2022-12-19T05:32:08.834Z,18.40
2022-12-19T05:34:35.573Z,18.02
2022-12-19T05:37:03.735Z,18.75
2022-12-19T05:39:30.664Z,17.08
2022-12-19T05:41:57.631Z,18.65
2022-12-19T05:44:25.301Z,16.60
2022-12-19T05:46:52.379Z,17.33
2022-12-19T05:49:19.438Z,22.38
2022-12-19T05:51:46.244Z,22.30
2022-12-19T05:54:13.063Z,18.00
2022-12-19T05:56:39.721Z,17.67
2022-12-19T05:59:09.528Z,16.67
2022-12-19T06:01:36.285Z,17.85
2022-12-19T06:04:04.371Z,21.45
2022-12-19T06:06:31.047Z,17.85
2022-12-19T06:09:03.929Z,22.90
2022-12-19T06:11:30.625Z,17.77
2022-12-19T06:13:57.338Z,17.88
2022-12-19T06:16:24.351Z,18.42
2022-12-19T06:18:51.560Z,17.88
2022-12-19T06:21:20.507Z,15.68
2022-12-19T06:23:47.370Z,16.17
2022-12-19T06:26:19.388Z,17.10
2022-12-19T06:28:51.712Z,17.45
2022-12-19T06:31:19.845Z,16.95
2022-12-19T06:33:46.494Z,16.55
2022-12-19T06:36:24.660Z,16.85
2022-12-19T06:38:55.969Z,16.90
2022-12-19T06:41:41.340Z,17.13
2022-12-19T06:44:12.159Z,15.93
2022-12-19T06:46:39.544Z,17.42
2022-12-19T06:49:06.986Z,16.17
2022-12-19T06:51:33.968Z,16.45
2022-12-19T06:54:00.650Z,16.77
2022-12-19T06:56:37.457Z,20.10
2022-12-19T06:59:05.221Z,17.45
2022-12-19T07:01:46.918Z,17.45
2022-12-19T07:04:17.076Z,17.33
2022-12-19T07:06:48.896Z,17.48
2022-12-19T07:09:16.728Z,16.27
2022-12-19T07:11:44.221Z,18.27
2022-12-19T07:14:11.243Z,17.00
2022-12-19T07:16:38.275Z,16.45
2022-12-19T07:19:06.332Z,17.45
2022-12-19T07:21:36.634Z,16.92
2022-12-19T07:24:03.966Z,15.98
2022-12-19T07:26:32.014Z,15.15
2022-12-19T07:28:59.223Z,16.70
2022-12-19T07:31:26.411Z,16.65
2022-12-19T07:33:53.360Z,16.63
2022-12-19T07:36:20.044Z,17.05
2022-12-19T07:38:46.832Z,15.70
2022-12-19T07:41:17.109Z,18.45
2022-12-19T07:43:43.774Z,17.25
2022-12-19T07:46:10.587Z,15.82
2022-12-19T07:48:38.512Z,15.73
2022-12-19T07:51:05.508Z,13.80
2022-12-19T07:53:32.469Z,15.73
2022-12-19T07:55:59.403Z,15.60
2022-12-19T07:58:26.223Z,15.43
2022-12-19T08:00:57.220Z,14.65
2022-12-19T08:03:24.668Z,14.20
2022-12-19T08:05:51.447Z,15.90
2022-12-19T08:08:18.318Z,16.00
2022-12-19T08:10:45.128Z,14.63
2022-12-19T08:13:12.011Z,13.88
2022-12-19T08:15:38.668Z,13.68
2022-12-19T08:18:06.428Z,14.18
2022-12-19T08:20:33.043Z,13.88
2022-12-19T08:23:01.369Z,13.77
2022-12-19T08:25:28.398Z,14.77
2022-12-19T08:27:55.728Z,13.75
2022-12-19T08:30:22.996Z,13.88
2022-12-19T08:32:50.935Z,14.60
2022-12-19T08:35:17.881Z,13.98
2022-12-19T08:37:44.793Z,13.73
2022-12-19T08:40:12.809Z,13.38
2022-12-19T08:42:39.980Z,13.93
2022-12-19T08:45:07.952Z,14.27
2022-12-19T08:47:34.920Z,14.77
2022-12-19T08:50:01.592Z,14.30
2022-12-19T08:52:28.229Z,15.23
2022-12-19T08:54:55.015Z,14.30
2022-12-19T08:57:21.763Z,16.63
2022-12-19T08:59:48.479Z,14.38
2022-12-19T09:02:16.693Z,14.43
2022-12-19T09:05:57.446Z,14.43
2022-12-19T09:07:31.022Z,14.60
2022-12-19T09:10:00.808Z,11.75
2022-12-19T09:12:27.580Z,12.95
2022-12-19T09:14:54.392Z,13.35
2022-12-19T09:17:21.183Z,13.05
2022-12-19T09:19:48.517Z,12.48
2022-12-19T09:22:15.645Z,12.63
2022-12-19T09:24:42.391Z,12.77
2022-12-19T09:27:09.352Z,11.68
2022-12-19T09:29:36.086Z,12.70
2022-12-19T09:32:02.925Z,12.82
2022-12-19T09:34:37.073Z,11.90
2022-12-19T09:37:09.253Z,11.57
2022-12-19T09:39:42.349Z,11.48
2022-12-19T09:42:23.240Z,11.88
2022-12-19T09:44:57.044Z,11.80
2022-12-19T09:47:25.610Z,11.80
2022-12-19T09:49:52.563Z,11.68
2022-12-19T09:52:25.820Z,12.18
2022-12-19T09:55:17.411Z,11.13
2022-12-19T09:58:06.453Z,11.63
2022-12-19T10:00:39.717Z,11.05
2022-12-19T10:03:17.375Z,11.85
2022-12-19T10:06:35.729Z,11.63
2022-12-19T10:09:20.145Z,11.90
2022-12-19T10:12:43.241Z,11.80
2022-12-19T10:14:33.158Z,12.88
2022-12-19T10:17:25.437Z,10.95
2022-12-19T10:19:52.376Z,11.70
2022-12-19T10:22:32.869Z,11.63
2022-12-19T10:25:12.203Z,11.40
2022-12-19T10:27:58.629Z,11.85
2022-12-19T10:30:26.040Z,11.93
2022-12-19T10:33:22.797Z,11.13
2022-12-19T10:35:54.900Z,13.55
2022-12-19T10:38:29.428Z,11.48
2022-12-19T10:41:39.289Z,11.77
2022-12-19T10:44:11.274Z,11.65
2022-12-19T10:46:49.374Z,11.30
2022-12-19T10:49:25.708Z,11.13
2022-12-19T10:52:08.054Z,11.57
2022-12-19T10:54:37.908Z,12.02
2022-12-19T10:57:22.908Z,11.82
2022-12-19T10:59:57.581Z,11.50
2022-12-19T11:02:39.646Z,12.05
2022-12-19T11:05:20.332Z,12.98
2022-12-19T11:08:06.767Z,11.27
2022-12-19T11:12:22.299Z,12.32
2022-12-19T11:19:13.241Z,11.35
2022-12-19T11:20:33.785Z,11.68
2022-12-19T11:29:19.403Z,11.52
2022-12-19T11:29:54.355Z,12.20
2022-12-19T11:30:39.633Z,12.63
2022-12-19T11:30:41.543Z,12.43
2022-12-19T11:34:21.488Z,12.88
2022-12-19T11:36:52.918Z,12.15
2022-12-19T11:39:33.990Z,12.70
2022-12-19T11:42:10.330Z,13.05
2022-12-19T11:45:01.615Z,11.65
2022-12-19T11:47:42.554Z,13.45
2022-12-19T11:50:15.588Z,13.93
2022-12-19T11:53:16.599Z,12.68
2022-12-19T11:55:46.675Z,13.48
2022-12-19T11:58:13.762Z,13.32
2022-12-19T12:00:47.531Z,13.15
2022-12-19T12:03:20.374Z,12.48
2022-12-19T12:05:48.269Z,12.57
2022-12-19T12:10:06.420Z,12.80
2022-12-19T12:16:48.388Z,13.50
2022-12-19T12:23:14.929Z,13.93
2022-12-19T12:29:41.729Z,12.48
2022-12-19T12:31:09.073Z,15.57
2022-12-19T12:31:51.389Z,13.32
2022-12-19T12:31:56.213Z,13.13
2022-12-19T12:32:04.666Z,14.75
2022-12-19T12:35:30.668Z,15.63
2022-12-19T12:39:06.897Z,13.63
2022-12-19T12:42:03.228Z,13.23
2022-12-19T12:44:45.907Z,14.05
2022-12-19T12:47:20.767Z,14.25
2022-12-19T12:49:51.702Z,13.00
2022-12-19T12:52:21.203Z,13.93
2022-12-19T12:54:48.850Z,14.43
2022-12-19T12:57:30.059Z,15.32
2022-12-19T13:00:23.765Z,14.82
2022-12-19T13:02:54.462Z,14.98
2022-12-19T13:05:40.848Z,16.08
2022-12-19T13:08:36.888Z,16.17
2022-12-19T13:11:06.973Z,16.40
2022-12-19T13:13:53.624Z,15.25
2022-12-19T13:16:43.274Z,15.68
2022-12-19T13:19:40.838Z,15.88
2022-12-19T13:22:07.720Z,15.45
2022-12-19T13:24:56.334Z,16.00
2022-12-19T13:27:24.080Z,16.15
2022-12-19T13:29:59.573Z,15.88
2022-12-19T13:32:34.490Z,17.00
2022-12-19T13:35:40.155Z,16.77
2022-12-19T13:39:48.863Z,16.55
2022-12-19T13:41:44.682Z,16.27
2022-12-19T13:44:12.286Z,16.60
2022-12-19T13:46:45.990Z,16.20
2022-12-19T13:49:20.329Z,15.60
2022-12-19T13:51:52.166Z,16.48
2022-12-19T13:54:33.065Z,15.85
2022-12-19T13:57:02.619Z,17.30
2022-12-19T13:59:38.468Z,16.92
2022-12-19T14:02:19.172Z,17.08
2022-12-19T14:04:46.054Z,16.40
2022-12-19T14:07:39.708Z,17.25
2022-12-19T14:11:30.039Z,15.63
2022-12-19T14:13:52.832Z,16.02
2022-12-19T14:16:16.994Z,16.65
2022-12-19T14:18:49.758Z,16.88
2022-12-19T14:22:11.644Z,16.42
2022-12-19T14:24:22.920Z,16.55
2022-12-19T14:28:25.908Z,16.90
2022-12-19T14:30:27.367Z,17.33
2022-12-19T14:33:45.282Z,17.13
2022-12-19T14:36:11.521Z,17.13
2022-12-19T14:39:23.114Z,17.02
2022-12-19T14:41:39.737Z,19.13
2022-12-19T14:52:51.828Z,18.25
2022-12-19T14:54:06.702Z,17.23
2022-12-19T14:54:11.538Z,17.40
2022-12-19T14:54:34.885Z,17.55
2022-12-19T14:56:12.933Z,19.27
2022-12-19T14:58:54.513Z,17.90
2022-12-19T15:01:26.168Z,17.95
2022-12-19T15:04:50.875Z,18.80
2022-12-19T15:07:07.333Z,20.67
2022-12-19T15:11:04.348Z,19.75
2022-12-19T15:14:46.477Z,19.33
2022-12-19T15:15:48.719Z,20.63
2022-12-19T15:18:20.703Z,20.38
2022-12-19T15:20:47.592Z,20.52
2022-12-19T15:23:21.504Z,20.17
2022-12-19T15:26:06.554Z,21.42
2022-12-19T15:28:50.029Z,19.85
2022-12-19T15:31:41.627Z,19.83
2022-12-19T15:34:39.184Z,19.77
2022-12-19T15:37:17.197Z,19.27
2022-12-19T15:39:44.785Z,19.55
2022-12-19T15:42:23.439Z,20.42
2022-12-19T15:44:54.132Z,19.63
2022-12-19T15:47:35.294Z,19.55
2022-12-19T15:50:09.530Z,19.63
2022-12-19T15:52:37.254Z,19.35
2022-12-19T15:55:04.997Z,19.50
2022-12-19T15:57:38.838Z,19.60
2022-12-19T16:00:29.297Z,19.17
2022-12-19T16:03:22.578Z,19.58
2022-12-19T16:05:44.759Z,18.92
2022-12-19T16:08:13.469Z,20.33
2022-12-19T16:10:41.112Z,20.95
2022-12-19T16:13:15.698Z,19.67
2022-12-19T16:15:43.110Z,19.35
2022-12-19T16:18:12.204Z,19.92
2022-12-19T16:20:40.032Z,19.88
2022-12-19T16:23:07.477Z,20.85
2022-12-19T16:25:44.228Z,20.52
2022-12-19T16:28:20.677Z,20.17
2022-12-19T16:30:47.848Z,18.10
2022-12-19T16:33:25.199Z,19.50
2022-12-19T16:36:04.100Z,18.70
2022-12-19T16:38:33.720Z,19.40
2022-12-19T16:41:01.852Z,19.75
2022-12-19T16:43:36.580Z,19.33
2022-12-19T16:46:06.408Z,19.92
2022-12-19T16:48:35.722Z,20.08
2022-12-19T16:51:02.617Z,18.73
2022-12-19T16:53:29.606Z,19.02
2022-12-19T16:55:56.859Z,19.40
2022-12-19T16:58:26.835Z,19.90
2022-12-19T17:00:55.314Z,19.90
2022-12-19T17:03:38.118Z,18.83
2022-12-19T17:06:04.863Z,19.33
2022-12-19T17:08:32.566Z,21.25
2022-12-19T17:10:59.412Z,19.48
2022-12-19T17:13:26.141Z,20.08
2022-12-19T17:15:56.694Z,21.08
2022-12-19T17:18:31.862Z,19.45
2022-12-19T17:20:58.632Z,19.65
2022-12-19T17:23:26.561Z,19.55
2022-12-19T17:25:55.075Z,19.73
2022-12-19T17:28:22.352Z,20.50
2022-12-19T17:30:54.454Z,20.00
2022-12-19T17:33:23.925Z,20.13
2022-12-19T17:35:50.599Z,20.27
2022-12-19T17:38:17.700Z,20.75
2022-12-19T17:40:44.932Z,19.85
2022-12-19T17:43:12.407Z,20.42
2022-12-19T17:45:40.021Z,21.95
2022-12-19T17:48:16.199Z,20.23
2022-12-19T17:50:43.052Z,19.40
2022-12-19T17:53:14.027Z,20.10
2022-12-19T17:55:41.348Z,20.35
2022-12-19T17:58:10.020Z,21.73
2022-12-19T18:00:37.447Z,19.52
2022-12-19T18:03:15.408Z,20.75
2022-12-19T18:05:42.237Z,20.00
2022-12-19T18:08:22.662Z,20.98
2022-12-19T18:10:53.214Z,19.98
2022-12-19T18:13:20.659Z,19.10
2022-12-19T18:15:47.575Z,20.15
2022-12-19T18:18:16.075Z,20.23
2022-12-19T18:20:44.376Z,22.23
2022-12-19T18:23:17.317Z,20.45
2022-12-19T18:25:47.127Z,20.35
2022-12-19T18:28:14.442Z,21.55
2022-12-19T18:30:42.191Z,20.23
2022-12-19T18:33:14.029Z,21.65
2022-12-19T18:35:42.764Z,21.70
2022-12-19T18:38:15.064Z,22.10
2022-12-19T18:40:41.937Z,22.73
2022-12-19T18:43:12.067Z,23.73
2022-12-19T18:45:42.408Z,20.50
2022-12-19T18:48:15.893Z,21.40
2022-12-19T18:50:42.548Z,19.65
2022-12-19T18:53:13.275Z,20.67
2022-12-19T18:55:40.006Z,20.98
2022-12-19T18:58:06.657Z,20.25
2022-12-19T19:00:33.776Z,20.48
2022-12-19T19:03:04.155Z,20.58
2022-12-19T19:05:33.252Z,20.67
2022-12-19T19:08:24.779Z,20.83
2022-12-19T19:11:14.626Z,20.25
2022-12-19T19:13:41.352Z,19.92
2022-12-19T19:16:20.698Z,19.55
2022-12-19T19:18:53.605Z,20.20
2022-12-19T19:21:23.018Z,21.00
2022-12-19T19:23:57.712Z,20.90
2022-12-19T19:26:26.725Z,20.88
2022-12-19T19:28:53.472Z,21.30
2022-12-19T19:31:23.635Z,21.08
2022-12-19T19:33:57.452Z,20.52
2022-12-19T19:36:26.259Z,21.35
2022-12-19T19:38:54.601Z,19.13
2022-12-19T19:41:24.589Z,21.55
2022-12-19T19:43:51.314Z,22.40
2022-12-19T19:46:18.056Z,21.52
2022-12-19T19:48:44.832Z,20.52
2022-12-19T19:51:15.606Z,19.73
2022-12-19T19:53:42.536Z,19.77
2022-12-19T19:56:09.550Z,19.30
2022-12-19T19:58:36.481Z,18.98
2022-12-19T20:01:11.034Z,19.60
2022-12-19T20:03:39.942Z,17.95
2022-12-19T20:06:07.246Z,18.63
2022-12-19T20:08:39.562Z,18.02
2022-12-19T20:11:10.857Z,20.27
2022-12-19T20:13:38.216Z,18.90
2022-12-19T20:16:09.950Z,18.08
2022-12-19T20:18:37.676Z,18.48
2022-12-19T20:21:12.304Z,18.45
2022-12-19T20:23:40.669Z,18.90
2022-12-19T20:26:07.430Z,18.75
2022-12-19T20:28:34.838Z,18.80
2022-12-19T20:31:01.773Z,17.25
2022-12-19T20:33:28.688Z,19.08
2022-12-19T20:36:12.215Z,17.90
2022-12-19T20:38:39.479Z,18.20
2022-12-19T20:41:06.848Z,17.77
2022-12-19T20:43:34.014Z,19.45
2022-12-19T20:46:09.163Z,19.00
2022-12-19T20:48:36.735Z,18.70
2022-12-19T20:51:04.831Z,19.13
2022-12-19T20:53:33.781Z,19.05
2022-12-19T20:56:02.360Z,17.65
2022-12-19T20:58:33.004Z,17.75
2022-12-19T21:01:18.056Z,16.25
2022-12-19T21:03:45.282Z,16.77
2022-12-19T21:06:14.927Z,16.40
2022-12-19T21:08:41.719Z,16.38
2022-12-19T21:11:09.530Z,16.95
2022-12-19T21:13:37.272Z,17.67
2022-12-19T21:16:09.128Z,17.58
2022-12-19T21:18:40.699Z,15.60
2022-12-19T21:21:09.350Z,14.98
2022-12-19T21:23:36.138Z,15.68
2022-12-19T21:26:04.614Z,14.10
2022-12-19T21:28:31.570Z,14.95
2022-12-19T21:31:22.385Z,15.00
2022-12-19T21:33:51.247Z,14.00
2022-12-19T21:36:20.337Z,13.10
2022-12-19T21:38:48.355Z,13.48
2022-12-19T21:41:21.501Z,12.90
2022-12-19T21:43:51.759Z,12.88
2022-12-19T21:46:19.532Z,12.75
2022-12-19T21:48:48.805Z,13.18
2022-12-19T21:51:16.978Z,13.63
2022-12-19T21:53:43.618Z,13.70
2022-12-19T21:56:29.485Z,13.63
2022-12-19T21:59:02.052Z,12.70
2022-12-19T22:01:29.913Z,13.55
2022-12-19T22:04:01.479Z,12.50
2022-12-19T22:06:32.042Z,13.45
2022-12-19T22:09:00.398Z,13.23
2022-12-19T22:11:28.818Z,12.85
2022-12-19T22:13:55.603Z,12.27
2022-12-19T22:16:22.399Z,13.50
2022-12-19T22:18:51.445Z,13.25
2022-12-19T22:21:18.973Z,12.85
2022-12-19T22:23:45.892Z,12.57
2022-12-19T22:26:14.931Z,13.18
2022-12-19T22:28:45.053Z,14.18
2022-12-19T22:31:34.869Z,12.75
2022-12-19T22:34:10.387Z,14.75
2022-12-19T22:36:38.422Z,14.05
2022-12-19T22:39:07.965Z,12.52
2022-12-19T22:41:35.625Z,13.85
2022-12-19T22:44:03.093Z,12.95
2022-12-19T22:46:32.804Z,13.43
2022-12-19T22:49:05.228Z,12.57
2022-12-19T22:51:33.631Z,12.35
2022-12-19T22:54:01.141Z,13.55
2022-12-19T22:56:29.472Z,14.70
2022-12-19T22:59:01.766Z,14.43
2022-12-19T23:01:31.223Z,13.45
2022-12-19T23:03:59.543Z,14.15
2022-12-19T23:06:28.056Z,12.80
2022-12-19T23:08:54.914Z,14.82
2022-12-19T23:11:25.607Z,13.65
2022-12-19T23:13:52.294Z,14.50
2022-12-19T23:16:19.218Z,13.10
2022-12-19T23:18:46.063Z,13.57
2022-12-19T23:21:18.303Z,13.18
2022-12-19T23:23:49.935Z,13.45
2022-12-19T23:26:28.254Z,13.68
2022-12-19T23:29:10.742Z,13.70
2022-12-19T23:31:40.084Z,14.10
2022-12-19T23:34:06.862Z,13.18
2022-12-19T23:39:20.322Z,13.20
2022-12-19T23:41:47.003Z,13.10
2022-12-19T23:44:16.731Z,12.98
2022-12-19T23:46:43.391Z,12.15
2022-12-19T23:49:10.195Z,12.73
2022-12-19T23:51:36.801Z,14.52
2022-12-19T23:54:03.562Z,14.02
2022-12-19T23:56:31.996Z,13.52
2022-12-19T23:58:59.139Z,13.75
